sensor_id;sensor_type;location;lat;lon;timestamp;temperature;humidity
1021;DHT22;499;42.648;23.270;2022-09-11T00:01:40;17.80;61.10
1021;DHT22;499;42.648;23.270;2022-09-11T00:04:09;17.70;61.70
1021;DHT22;499;42.648;23.270;2022-09-11T00:06:37;17.70;61.00
1021;DHT22;499;42.648;23.270;2022-09-11T00:09:06;17.70;62.30
1021;DHT22;499;42.648;23.270;2022-09-11T00:11:35;17.70;63.00
1021;DHT22;499;42.648;23.270;2022-09-11T00:14:05;17.70;60.00
1021;DHT22;499;42.648;23.270;2022-09-11T00:16:34;17.70;61.00
1021;DHT22;499;42.648;23.270;2022-09-11T00:19:04;17.70;61.00
1021;DHT22;499;42.648;23.270;2022-09-11T00:21:32;17.70;62.70
1021;DHT22;499;42.648;23.270;2022-09-11T00:24:01;17.70;63.90
1021;DHT22;499;42.648;23.270;2022-09-11T00:26:29;17.70;61.90
1021;DHT22;499;42.648;23.270;2022-09-11T00:28:56;17.70;62.50
1021;DHT22;499;42.648;23.270;2022-09-11T00:31:25;17.70;61.70
1021;DHT22;499;42.648;23.270;2022-09-11T00:33:53;17.60;64.80
1021;DHT22;499;42.648;23.270;2022-09-11T00:36:22;17.60;68.70
1021;DHT22;499;42.648;23.270;2022-09-11T00:38:50;17.50;70.70
1021;DHT22;499;42.648;23.270;2022-09-11T00:41:20;17.60;71.10
1021;DHT22;499;42.648;23.270;2022-09-11T00:43:56;17.60;68.70
1021;DHT22;499;42.648;23.270;2022-09-11T00:46:28;17.50;70.70
1021;DHT22;499;42.648;23.270;2022-09-11T00:48:57;17.50;72.00
1021;DHT22;499;42.648;23.270;2022-09-11T00:51:29;17.50;73.80
1021;DHT22;499;42.648;23.270;2022-09-11T00:53:57;17.40;75.00
1021;DHT22;499;42.648;23.270;2022-09-11T00:56:29;17.40;72.60
1021;DHT22;499;42.648;23.270;2022-09-11T00:59:00;17.40;73.70
1021;DHT22;499;42.648;23.270;2022-09-11T01:01:27;17.40;73.80
1021;DHT22;499;42.648;23.270;2022-09-11T01:03:55;17.40;73.70
1021;DHT22;499;42.648;23.270;2022-09-11T01:06:23;17.40;74.00
1021;DHT22;499;42.648;23.270;2022-09-11T01:08:50;17.40;74.10
1021;DHT22;499;42.648;23.270;2022-09-11T01:11:28;17.40;73.10
1021;DHT22;499;42.648;23.270;2022-09-11T01:14:04;17.20;73.60
1021;DHT22;499;42.648;23.270;2022-09-11T01:16:38;17.20;76.10
1021;DHT22;499;42.648;23.270;2022-09-11T01:19:17;17.20;76.20
1021;DHT22;499;42.648;23.270;2022-09-11T01:22:19;17.20;77.10
1021;DHT22;499;42.648;23.270;2022-09-11T01:25:07;17.20;76.90
1021;DHT22;499;42.648;23.270;2022-09-11T01:27:45;17.20;75.30
1021;DHT22;499;42.648;23.270;2022-09-11T01:30:15;17.10;77.30
1021;DHT22;499;42.648;23.270;2022-09-11T01:33:00;17.10;75.80
1021;DHT22;499;42.648;23.270;2022-09-11T01:35:38;17.10;75.70
1021;DHT22;499;42.648;23.270;2022-09-11T01:38:13;17.10;77.80
1021;DHT22;499;42.648;23.270;2022-09-11T01:40:48;17.10;77.40
1021;DHT22;499;42.648;23.270;2022-09-11T01:43:23;17.10;76.50
1021;DHT22;499;42.648;23.270;2022-09-11T01:45:52;17.20;76.20
1021;DHT22;499;42.648;23.270;2022-09-11T01:48:24;16.90;75.50
1021;DHT22;499;42.648;23.270;2022-09-11T01:50:53;17.30;75.40
1021;DHT22;499;42.648;23.270;2022-09-11T01:53:24;17.40;73.00
1021;DHT22;499;42.648;23.270;2022-09-11T01:55:58;17.50;69.50
1021;DHT22;499;42.648;23.270;2022-09-11T01:58:30;17.60;63.70
1021;DHT22;499;42.648;23.270;2022-09-11T02:01:05;17.60;59.10
1021;DHT22;499;42.648;23.270;2022-09-11T02:03:36;17.60;56.30
1021;DHT22;499;42.648;23.270;2022-09-11T02:06:08;17.50;53.00
1021;DHT22;499;42.648;23.270;2022-09-11T02:08:40;17.60;51.70
1021;DHT22;499;42.648;23.270;2022-09-11T02:11:14;17.60;50.80
1021;DHT22;499;42.648;23.270;2022-09-11T02:13:48;17.60;50.20
1021;DHT22;499;42.648;23.270;2022-09-11T02:16:20;17.60;47.10
1021;DHT22;499;42.648;23.270;2022-09-11T02:18:55;17.70;46.80
1021;DHT22;499;42.648;23.270;2022-09-11T02:21:25;17.70;47.20
1021;DHT22;499;42.648;23.270;2022-09-11T02:23:52;17.60;43.10
1021;DHT22;499;42.648;23.270;2022-09-11T02:26:21;17.60;44.60
1021;DHT22;499;42.648;23.270;2022-09-11T02:28:50;17.60;47.50
1021;DHT22;499;42.648;23.270;2022-09-11T02:31:18;17.70;47.20
1021;DHT22;499;42.648;23.270;2022-09-11T02:33:46;17.60;48.40
1021;DHT22;499;42.648;23.270;2022-09-11T02:36:41;17.60;51.80
1021;DHT22;499;42.648;23.270;2022-09-11T02:39:24;17.60;51.70
1021;DHT22;499;42.648;23.270;2022-09-11T02:42:10;17.60;50.80
1021;DHT22;499;42.648;23.270;2022-09-11T02:44:48;17.60;51.70
1021;DHT22;499;42.648;23.270;2022-09-11T02:47:25;17.50;50.20
1021;DHT22;499;42.648;23.270;2022-09-11T02:50:02;17.40;52.00
1021;DHT22;499;42.648;23.270;2022-09-11T02:52:38;17.50;52.70
1021;DHT22;499;42.648;23.270;2022-09-11T02:55:14;17.50;52.50
1021;DHT22;499;42.648;23.270;2022-09-11T02:57:47;17.50;51.70
1021;DHT22;499;42.648;23.270;2022-09-11T03:00:16;17.40;51.50
1021;DHT22;499;42.648;23.270;2022-09-11T03:02:43;17.40;52.70
1021;DHT22;499;42.648;23.270;2022-09-11T03:05:12;17.30;53.40
1021;DHT22;499;42.648;23.270;2022-09-11T03:07:40;17.10;55.90
1021;DHT22;499;42.648;23.270;2022-09-11T03:10:08;17.20;54.50
1021;DHT22;499;42.648;23.270;2022-09-11T03:12:37;17.10;57.20
1021;DHT22;499;42.648;23.270;2022-09-11T03:15:05;17.10;57.00
1021;DHT22;499;42.648;23.270;2022-09-11T03:17:35;17.10;55.90
1021;DHT22;499;42.648;23.270;2022-09-11T03:20:03;16.80;59.80
1021;DHT22;499;42.648;23.270;2022-09-11T03:22:30;16.80;63.20
1021;DHT22;499;42.648;23.270;2022-09-11T03:24:57;16.50;67.60
1021;DHT22;499;42.648;23.270;2022-09-11T03:27:24;16.40;69.70
1021;DHT22;499;42.648;23.270;2022-09-11T03:29:52;16.40;71.70
1021;DHT22;499;42.648;23.270;2022-09-11T03:32:20;16.30;73.80
1021;DHT22;499;42.648;23.270;2022-09-11T03:34:49;16.40;74.60
1021;DHT22;499;42.648;23.270;2022-09-11T03:37:16;16.10;78.30
1021;DHT22;499;42.648;23.270;2022-09-11T03:39:44;16.10;81.40
1021;DHT22;499;42.648;23.270;2022-09-11T03:42:12;16.10;77.10
1021;DHT22;499;42.648;23.270;2022-09-11T03:44:40;16.10;79.10
1021;DHT22;499;42.648;23.270;2022-09-11T03:47:07;16.10;78.90
1021;DHT22;499;42.648;23.270;2022-09-11T03:49:34;16.10;80.40
1021;DHT22;499;42.648;23.270;2022-09-11T03:52:03;16.20;79.10
1021;DHT22;499;42.648;23.270;2022-09-11T03:54:30;16.10;78.40
1021;DHT22;499;42.648;23.270;2022-09-11T03:56:58;16.10;79.60
1021;DHT22;499;42.648;23.270;2022-09-11T03:59:25;15.90;78.70
1021;DHT22;499;42.648;23.270;2022-09-11T04:01:52;15.80;81.90
1021;DHT22;499;42.648;23.270;2022-09-11T04:04:19;15.70;83.60
1021;DHT22;499;42.648;23.270;2022-09-11T04:06:46;15.70;86.10
1021;DHT22;499;42.648;23.270;2022-09-11T04:09:15;15.80;84.90
1021;DHT22;499;42.648;23.270;2022-09-11T04:11:43;15.80;82.30
1021;DHT22;499;42.648;23.270;2022-09-11T04:14:10;15.60;83.20
1021;DHT22;499;42.648;23.270;2022-09-11T04:16:37;15.40;91.00
1021;DHT22;499;42.648;23.270;2022-09-11T04:19:04;15.50;91.00
1021;DHT22;499;42.648;23.270;2022-09-11T04:21:31;15.60;91.10
1021;DHT22;499;42.648;23.270;2022-09-11T04:23:58;15.60;91.10
1021;DHT22;499;42.648;23.270;2022-09-11T04:26:30;15.70;91.20
1021;DHT22;499;42.648;23.270;2022-09-11T04:28:57;15.70;91.50
1021;DHT22;499;42.648;23.270;2022-09-11T04:31:25;15.80;91.50
1021;DHT22;499;42.648;23.270;2022-09-11T04:33:53;15.80;89.60
1021;DHT22;499;42.648;23.270;2022-09-11T04:36:21;15.90;88.20
1021;DHT22;499;42.648;23.270;2022-09-11T04:38:53;15.80;90.30
1021;DHT22;499;42.648;23.270;2022-09-11T04:41:21;15.90;91.50
1021;DHT22;499;42.648;23.270;2022-09-11T04:43:53;16.00;92.00
1021;DHT22;499;42.648;23.270;2022-09-11T04:46:20;16.00;93.00
1021;DHT22;499;42.648;23.270;2022-09-11T04:48:50;16.10;94.50
1021;DHT22;499;42.648;23.270;2022-09-11T04:51:20;16.20;95.40
1021;DHT22;499;42.648;23.270;2022-09-11T04:53:47;16.30;95.50
1021;DHT22;499;42.648;23.270;2022-09-11T04:56:15;16.50;94.60
1021;DHT22;499;42.648;23.270;2022-09-11T04:58:42;16.70;93.70
1021;DHT22;499;42.648;23.270;2022-09-11T05:01:12;16.90;92.80
1021;DHT22;499;42.648;23.270;2022-09-11T05:03:40;16.90;91.70
1021;DHT22;499;42.648;23.270;2022-09-11T05:06:10;17.00;92.00
1021;DHT22;499;42.648;23.270;2022-09-11T05:08:41;17.00;91.20
1021;DHT22;499;42.648;23.270;2022-09-11T05:11:10;17.00;90.40
1021;DHT22;499;42.648;23.270;2022-09-11T05:13:39;17.00;90.70
1021;DHT22;499;42.648;23.270;2022-09-11T05:16:08;17.00;91.70
1021;DHT22;499;42.648;23.270;2022-09-11T05:18:38;17.10;91.30
1021;DHT22;499;42.648;23.270;2022-09-11T05:21:08;17.10;91.80
1021;DHT22;499;42.648;23.270;2022-09-11T05:23:35;17.10;91.80
1021;DHT22;499;42.648;23.270;2022-09-11T05:26:04;17.20;90.20
1021;DHT22;499;42.648;23.270;2022-09-11T05:28:32;17.30;90.00
1021;DHT22;499;42.648;23.270;2022-09-11T05:30:59;17.40;89.60
1021;DHT22;499;42.648;23.270;2022-09-11T05:33:27;17.50;89.80
1021;DHT22;499;42.648;23.270;2022-09-11T05:36:03;17.50;90.70
1021;DHT22;499;42.648;23.270;2022-09-11T05:38:30;17.60;90.30
1021;DHT22;499;42.648;23.270;2022-09-11T05:40:57;17.70;88.40
1021;DHT22;499;42.648;23.270;2022-09-11T05:43:24;17.70;87.90
1021;DHT22;499;42.648;23.270;2022-09-11T05:45:54;17.70;89.50
1021;DHT22;499;42.648;23.270;2022-09-11T05:48:22;17.90;85.50
1021;DHT22;499;42.648;23.270;2022-09-11T05:50:55;18.00;79.30
1021;DHT22;499;42.648;23.270;2022-09-11T05:53:23;18.10;76.20
1021;DHT22;499;42.648;23.270;2022-09-11T05:55:51;18.20;72.50
1021;DHT22;499;42.648;23.270;2022-09-11T05:58:18;18.20;67.80
1021;DHT22;499;42.648;23.270;2022-09-11T06:00:46;18.30;66.60
1021;DHT22;499;42.648;23.270;2022-09-11T06:03:13;18.40;66.00
1021;DHT22;499;42.648;23.270;2022-09-11T06:05:40;18.40;64.40
1021;DHT22;499;42.648;23.270;2022-09-11T06:08:10;18.50;61.80
1021;DHT22;499;42.648;23.270;2022-09-11T06:10:43;18.50;60.00
1021;DHT22;499;42.648;23.270;2022-09-11T06:13:11;18.60;55.70
1021;DHT22;499;42.648;23.270;2022-09-11T06:15:43;18.50;60.90
1021;DHT22;499;42.648;23.270;2022-09-11T06:18:10;18.60;62.40
1021;DHT22;499;42.648;23.270;2022-09-11T06:20:37;18.60;63.70
1021;DHT22;499;42.648;23.270;2022-09-11T06:23:04;18.50;65.60
1021;DHT22;499;42.648;23.270;2022-09-11T06:25:33;18.50;67.60
1021;DHT22;499;42.648;23.270;2022-09-11T06:28:01;18.60;71.80
1021;DHT22;499;42.648;23.270;2022-09-11T06:30:29;18.60;72.00
1021;DHT22;499;42.648;23.270;2022-09-11T06:32:56;18.50;77.10
1021;DHT22;499;42.648;23.270;2022-09-11T06:35:23;18.60;75.30
1021;DHT22;499;42.648;23.270;2022-09-11T06:37:51;18.70;67.00
1021;DHT22;499;42.648;23.270;2022-09-11T06:40:18;18.80;62.60
1021;DHT22;499;42.648;23.270;2022-09-11T06:42:46;18.90;58.30
1021;DHT22;499;42.648;23.270;2022-09-11T06:45:14;19.10;53.10
1021;DHT22;499;42.648;23.270;2022-09-11T06:47:42;19.10;53.00
1021;DHT22;499;42.648;23.270;2022-09-11T06:50:09;19.50;53.40
1021;DHT22;499;42.648;23.270;2022-09-11T06:52:37;19.60;44.30
1021;DHT22;499;42.648;23.270;2022-09-11T06:55:06;19.70;44.10
1021;DHT22;499;42.648;23.270;2022-09-11T06:57:38;19.50;40.10
1021;DHT22;499;42.648;23.270;2022-09-11T07:00:08;20.00;41.50
1021;DHT22;499;42.648;23.270;2022-09-11T07:02:36;20.00;41.20
1021;DHT22;499;42.648;23.270;2022-09-11T07:05:03;19.80;36.30
1021;DHT22;499;42.648;23.270;2022-09-11T07:07:30;19.90;36.30
1021;DHT22;499;42.648;23.270;2022-09-11T07:09:58;20.00;34.80
1021;DHT22;499;42.648;23.270;2022-09-11T07:12:29;20.20;36.80
1021;DHT22;499;42.648;23.270;2022-09-11T07:14:57;20.40;32.00
1021;DHT22;499;42.648;23.270;2022-09-11T07:17:25;20.60;30.40
1021;DHT22;499;42.648;23.270;2022-09-11T07:19:52;20.40;31.80
1021;DHT22;499;42.648;23.270;2022-09-11T07:22:20;20.70;31.00
1021;DHT22;499;42.648;23.270;2022-09-11T07:24:47;20.70;29.70
1021;DHT22;499;42.648;23.270;2022-09-11T07:27:14;20.80;28.90
1021;DHT22;499;42.648;23.270;2022-09-11T07:29:41;20.70;29.80
1021;DHT22;499;42.648;23.270;2022-09-11T07:32:08;20.80;29.30
1021;DHT22;499;42.648;23.270;2022-09-11T07:34:37;20.80;30.20
1021;DHT22;499;42.648;23.270;2022-09-11T07:37:04;20.90;28.00
1021;DHT22;499;42.648;23.270;2022-09-11T07:39:32;21.10;28.60
1021;DHT22;499;42.648;23.270;2022-09-11T07:41:59;21.00;26.30
1021;DHT22;499;42.648;23.270;2022-09-11T07:44:26;21.00;26.80
1021;DHT22;499;42.648;23.270;2022-09-11T07:46:53;20.80;28.00
1021;DHT22;499;42.648;23.270;2022-09-11T07:49:21;20.40;26.40
1021;DHT22;499;42.648;23.270;2022-09-11T07:51:49;20.20;26.20
1021;DHT22;499;42.648;23.270;2022-09-11T07:54:17;20.30;26.90
1021;DHT22;499;42.648;23.270;2022-09-11T07:56:44;20.50;27.80
1021;DHT22;499;42.648;23.270;2022-09-11T07:59:11;20.60;26.50
1021;DHT22;499;42.648;23.270;2022-09-11T08:01:39;20.60;25.10
1021;DHT22;499;42.648;23.270;2022-09-11T08:04:09;20.60;25.10
1021;DHT22;499;42.648;23.270;2022-09-11T08:06:39;20.60;26.50
1021;DHT22;499;42.648;23.270;2022-09-11T08:09:09;20.60;28.70
1021;DHT22;499;42.648;23.270;2022-09-11T08:11:39;20.50;28.70
1021;DHT22;499;42.648;23.270;2022-09-11T08:14:07;20.50;26.40
1021;DHT22;499;42.648;23.270;2022-09-11T08:16:36;20.40;26.80
1021;DHT22;499;42.648;23.270;2022-09-11T08:19:03;20.40;28.90
1021;DHT22;499;42.648;23.270;2022-09-11T08:21:31;20.40;29.00
1021;DHT22;499;42.648;23.270;2022-09-11T08:23:58;20.50;28.00
1021;DHT22;499;42.648;23.270;2022-09-11T08:26:28;20.50;29.50
1021;DHT22;499;42.648;23.270;2022-09-11T08:28:57;20.60;28.40
1021;DHT22;499;42.648;23.270;2022-09-11T08:31:25;20.60;27.90
1021;DHT22;499;42.648;23.270;2022-09-11T08:33:53;20.70;28.40
1021;DHT22;499;42.648;23.270;2022-09-11T08:36:21;20.80;30.60
1021;DHT22;499;42.648;23.270;2022-09-11T08:38:49;21.00;30.00
1021;DHT22;499;42.648;23.270;2022-09-11T08:41:33;21.10;29.10
1021;DHT22;499;42.648;23.270;2022-09-11T08:44:05;21.30;29.50
1021;DHT22;499;42.648;23.270;2022-09-11T08:46:41;21.20;30.80
1021;DHT22;499;42.648;23.270;2022-09-11T08:49:16;21.20;33.50
1021;DHT22;499;42.648;23.270;2022-09-11T08:51:45;21.30;30.00
1021;DHT22;499;42.648;23.270;2022-09-11T08:54:21;21.40;30.00
1021;DHT22;499;42.648;23.270;2022-09-11T08:56:56;21.30;28.30
1021;DHT22;499;42.648;23.270;2022-09-11T08:59:39;21.50;28.80
1021;DHT22;499;42.648;23.270;2022-09-11T09:02:25;21.50;27.70
1021;DHT22;499;42.648;23.270;2022-09-11T09:05:12;21.40;26.20
1021;DHT22;499;42.648;23.270;2022-09-11T09:07:53;21.20;26.90
1021;DHT22;499;42.648;23.270;2022-09-11T09:10:36;21.30;27.70
1021;DHT22;499;42.648;23.270;2022-09-11T09:13:19;21.40;27.10
1021;DHT22;499;42.648;23.270;2022-09-11T09:15:55;21.60;26.30
1021;DHT22;499;42.648;23.270;2022-09-11T09:18:30;21.80;25.30
1021;DHT22;499;42.648;23.270;2022-09-11T09:21:01;21.80;24.80
1021;DHT22;499;42.648;23.270;2022-09-11T09:23:34;21.60;25.50
1021;DHT22;499;42.648;23.270;2022-09-11T09:26:03;21.60;25.70
1021;DHT22;499;42.648;23.270;2022-09-11T09:28:33;21.60;25.20
1021;DHT22;499;42.648;23.270;2022-09-11T09:31:07;21.60;25.00
1021;DHT22;499;42.648;23.270;2022-09-11T09:33:41;21.50;24.80
1021;DHT22;499;42.648;23.270;2022-09-11T09:36:13;21.40;26.40
1021;DHT22;499;42.648;23.270;2022-09-11T09:38:41;21.40;25.50
1021;DHT22;499;42.648;23.270;2022-09-11T09:44:12;21.50;25.60
1021;DHT22;499;42.648;23.270;2022-09-11T09:46:43;21.60;25.00
1021;DHT22;499;42.648;23.270;2022-09-11T09:49:12;21.40;24.20
1021;DHT22;499;42.648;23.270;2022-09-11T09:51:43;21.30;24.30
1021;DHT22;499;42.648;23.270;2022-09-11T09:54:14;21.60;24.40
1021;DHT22;499;42.648;23.270;2022-09-11T09:56:44;21.70;23.50
1021;DHT22;499;42.648;23.270;2022-09-11T09:59:21;21.90;24.30
1021;DHT22;499;42.648;23.270;2022-09-11T10:01:49;22.10;23.60
1021;DHT22;499;42.648;23.270;2022-09-11T10:04:19;22.20;21.70
1021;DHT22;499;42.648;23.270;2022-09-11T10:06:48;22.40;21.50
1021;DHT22;499;42.648;23.270;2022-09-11T10:09:21;22.30;20.90
1021;DHT22;499;42.648;23.270;2022-09-11T10:11:58;22.20;21.70
1021;DHT22;499;42.648;23.270;2022-09-11T10:14:30;22.30;21.40
1021;DHT22;499;42.648;23.270;2022-09-11T10:16:59;22.20;20.70
1021;DHT22;499;42.648;23.270;2022-09-11T10:19:36;22.30;21.00
1021;DHT22;499;42.648;23.270;2022-09-11T10:22:23;22.50;23.00
1021;DHT22;499;42.648;23.270;2022-09-11T10:25:01;22.50;20.60
1021;DHT22;499;42.648;23.270;2022-09-11T10:27:31;22.60;19.90
1021;DHT22;499;42.648;23.270;2022-09-11T10:30:01;22.80;20.10
1021;DHT22;499;42.648;23.270;2022-09-11T10:32:29;22.60;20.70
1021;DHT22;499;42.648;23.270;2022-09-11T10:34:57;22.50;21.30
1021;DHT22;499;42.648;23.270;2022-09-11T10:37:26;22.40;20.90
1021;DHT22;499;42.648;23.270;2022-09-11T10:40:01;22.40;21.30
1021;DHT22;499;42.648;23.270;2022-09-11T10:42:32;22.50;20.40
1021;DHT22;499;42.648;23.270;2022-09-11T10:45:06;22.40;21.40
1021;DHT22;499;42.648;23.270;2022-09-11T10:47:35;22.60;21.00
1021;DHT22;499;42.648;23.270;2022-09-11T10:50:21;22.70;20.00
1021;DHT22;499;42.648;23.270;2022-09-11T10:53:11;22.80;20.10
1021;DHT22;499;42.648;23.270;2022-09-11T10:55:42;22.90;20.40
1021;DHT22;499;42.648;23.270;2022-09-11T10:58:16;22.90;20.10
1021;DHT22;499;42.648;23.270;2022-09-11T11:00:47;22.90;20.10
1021;DHT22;499;42.648;23.270;2022-09-11T11:03:17;23.00;20.20
1021;DHT22;499;42.648;23.270;2022-09-11T11:05:58;23.00;19.40
1021;DHT22;499;42.648;23.270;2022-09-11T11:08:57;23.20;20.40
1021;DHT22;499;42.648;23.270;2022-09-11T11:11:39;23.10;18.40
1021;DHT22;499;42.648;23.270;2022-09-11T11:14:39;23.10;19.50
1021;DHT22;499;42.648;23.270;2022-09-11T11:17:18;23.00;20.20
1021;DHT22;499;42.648;23.270;2022-09-11T11:20:01;22.50;20.80
1021;DHT22;499;42.648;23.270;2022-09-11T11:22:57;22.50;20.90
1021;DHT22;499;42.648;23.270;2022-09-11T11:25:32;22.40;21.20
1021;DHT22;499;42.648;23.270;2022-09-11T11:28:24;22.40;21.50
1021;DHT22;499;42.648;23.270;2022-09-11T11:31:00;22.60;20.60
1021;DHT22;499;42.648;23.270;2022-09-11T11:33:54;22.70;20.60
1021;DHT22;499;42.648;23.270;2022-09-11T11:36:29;22.80;20.80
1021;DHT22;499;42.648;23.270;2022-09-11T11:39:01;22.90;20.50
1021;DHT22;499;42.648;23.270;2022-09-11T11:41:36;23.00;20.20
1021;DHT22;499;42.648;23.270;2022-09-11T11:44:13;23.00;20.20
1021;DHT22;499;42.648;23.270;2022-09-11T11:46:45;22.90;20.10
1021;DHT22;499;42.648;23.270;2022-09-11T11:49:22;22.70;20.00
1021;DHT22;499;42.648;23.270;2022-09-11T11:51:59;22.50;20.50
1021;DHT22;499;42.648;23.270;2022-09-11T11:54:34;22.60;21.30
1021;DHT22;499;42.648;23.270;2022-09-11T11:57:08;22.60;19.90
1021;DHT22;499;42.648;23.270;2022-09-11T11:59:43;22.70;20.70
1021;DHT22;499;42.648;23.270;2022-09-11T12:02:17;23.00;20.80
1021;DHT22;499;42.648;23.270;2022-09-11T12:04:51;23.00;19.70
1021;DHT22;499;42.648;23.270;2022-09-11T12:07:23;23.10;19.40
1021;DHT22;499;42.648;23.270;2022-09-11T12:09:53;23.30;20.40
1021;DHT22;499;42.648;23.270;2022-09-11T12:12:25;23.50;18.50
1021;DHT22;499;42.648;23.270;2022-09-11T12:14:54;23.50;18.80
1021;DHT22;499;42.648;23.270;2022-09-11T12:17:24;23.30;18.20
1021;DHT22;499;42.648;23.270;2022-09-11T12:20:14;23.10;18.60
1021;DHT22;499;42.648;23.270;2022-09-11T12:22:42;23.20;19.30
1021;DHT22;499;42.648;23.270;2022-09-11T12:28:20;23.10;18.80
1021;DHT22;499;42.648;23.270;2022-09-11T12:30:59;23.10;18.60
1021;DHT22;499;42.648;23.270;2022-09-11T12:33:55;23.10;19.50
1021;DHT22;499;42.648;23.270;2022-09-11T12:36:41;23.20;18.80
1021;DHT22;499;42.648;23.270;2022-09-11T12:39:23;23.20;17.90
1021;DHT22;499;42.648;23.270;2022-09-11T12:41:51;23.20;18.60
1021;DHT22;499;42.648;23.270;2022-09-11T12:44:30;23.20;18.40
1021;DHT22;499;42.648;23.270;2022-09-11T12:47:10;23.30;18.20
1021;DHT22;499;42.648;23.270;2022-09-11T12:49:51;23.10;18.60
1021;DHT22;499;42.648;23.270;2022-09-11T12:52:36;23.10;18.30
1021;DHT22;499;42.648;23.270;2022-09-11T12:55:29;23.10;18.80
1021;DHT22;499;42.648;23.270;2022-09-11T12:58:00;23.10;17.90
1021;DHT22;499;42.648;23.270;2022-09-11T13:00:37;23.20;18.90
1021;DHT22;499;42.648;23.270;2022-09-11T13:03:06;23.30;18.90
1021;DHT22;499;42.648;23.270;2022-09-11T13:05:41;23.30;17.70
1021;DHT22;499;42.648;23.270;2022-09-11T13:08:17;23.60;18.70
1021;DHT22;499;42.648;23.270;2022-09-11T13:10:47;23.90;17.30
1021;DHT22;499;42.648;23.270;2022-09-11T13:13:37;24.10;16.30
1021;DHT22;499;42.648;23.270;2022-09-11T13:16:16;24.10;16.80
1021;DHT22;499;42.648;23.270;2022-09-11T13:18:44;24.30;16.70
1021;DHT22;499;42.648;23.270;2022-09-11T13:21:15;24.40;16.20
1021;DHT22;499;42.648;23.270;2022-09-11T13:23:44;24.40;15.00
1021;DHT22;499;42.648;23.270;2022-09-11T13:26:19;24.10;15.40
1021;DHT22;499;42.648;23.270;2022-09-11T13:28:50;23.90;15.90
1021;DHT22;499;42.648;23.270;2022-09-11T13:31:25;23.70;16.60
1021;DHT22;499;42.648;23.270;2022-09-11T13:33:54;23.50;16.20
1021;DHT22;499;42.648;23.270;2022-09-11T13:36:23;23.50;16.90
1021;DHT22;499;42.648;23.270;2022-09-11T13:38:54;23.40;16.70
1021;DHT22;499;42.648;23.270;2022-09-11T13:41:24;23.30;17.20
1021;DHT22;499;42.648;23.270;2022-09-11T13:43:56;23.30;17.80
1021;DHT22;499;42.648;23.270;2022-09-11T13:46:25;23.20;18.20
1021;DHT22;499;42.648;23.270;2022-09-11T13:48:58;23.10;18.10
1021;DHT22;499;42.648;23.270;2022-09-11T13:51:43;23.00;18.60
1021;DHT22;499;42.648;23.270;2022-09-11T13:54:14;22.90;18.90
1021;DHT22;499;42.648;23.270;2022-09-11T13:56:43;22.90;18.30
1021;DHT22;499;42.648;23.270;2022-09-11T13:59:37;23.10;18.70
1021;DHT22;499;42.648;23.270;2022-09-11T14:05:07;22.90;17.20
1021;DHT22;499;42.648;23.270;2022-09-11T14:07:41;22.90;18.30
1021;DHT22;499;42.648;23.270;2022-09-11T14:10:18;22.90;17.90
1021;DHT22;499;42.648;23.270;2022-09-11T14:12:49;23.00;18.10
1021;DHT22;499;42.648;23.270;2022-09-11T14:15:26;22.90;17.70
1021;DHT22;499;42.648;23.270;2022-09-11T14:17:53;23.00;18.20
1021;DHT22;499;42.648;23.270;2022-09-11T14:20:22;23.00;17.50
1021;DHT22;499;42.648;23.270;2022-09-11T14:22:53;23.00;16.70
1021;DHT22;499;42.648;23.270;2022-09-11T14:25:23;23.00;16.90
1021;DHT22;499;42.648;23.270;2022-09-11T14:27:50;23.10;16.20
1021;DHT22;499;42.648;23.270;2022-09-11T14:30:29;23.20;15.60
1021;DHT22;499;42.648;23.270;2022-09-11T14:33:21;23.20;16.20
1021;DHT22;499;42.648;23.270;2022-09-11T14:35:50;23.30;14.60
1021;DHT22;499;42.648;23.270;2022-09-11T14:38:19;23.30;14.30
1021;DHT22;499;42.648;23.270;2022-09-11T14:40:53;23.30;15.30
1021;DHT22;499;42.648;23.270;2022-09-11T14:43:27;23.30;14.60
1021;DHT22;499;42.648;23.270;2022-09-11T14:45:58;23.10;14.30
1021;DHT22;499;42.648;23.270;2022-09-11T14:48:26;23.10;15.00
1021;DHT22;499;42.648;23.270;2022-09-11T14:50:53;23.10;14.70
1021;DHT22;499;42.648;23.270;2022-09-11T14:53:26;23.20;15.20
1021;DHT22;499;42.648;23.270;2022-09-11T14:55:57;23.30;14.90
1021;DHT22;499;42.648;23.270;2022-09-11T14:58:27;23.10;15.30
1021;DHT22;499;42.648;23.270;2022-09-11T15:00:54;23.00;14.40
1021;DHT22;499;42.648;23.270;2022-09-11T15:03:22;23.00;14.80
1021;DHT22;499;42.648;23.270;2022-09-11T15:05:55;22.90;15.10
1021;DHT22;499;42.648;23.270;2022-09-11T15:08:24;22.80;14.80
1021;DHT22;499;42.648;23.270;2022-09-11T15:10:51;22.80;14.10
1021;DHT22;499;42.648;23.270;2022-09-11T15:13:21;22.70;14.30
1021;DHT22;499;42.648;23.270;2022-09-11T15:15:48;22.80;16.00
1021;DHT22;499;42.648;23.270;2022-09-11T15:18:16;22.70;15.90
1021;DHT22;499;42.648;23.270;2022-09-11T15:20:44;22.70;16.50
1021;DHT22;499;42.648;23.270;2022-09-11T15:23:11;22.60;16.40
1021;DHT22;499;42.648;23.270;2022-09-11T15:25:38;22.40;16.10
1021;DHT22;499;42.648;23.270;2022-09-11T15:28:05;22.40;16.50
1021;DHT22;499;42.648;23.270;2022-09-11T15:30:36;22.40;16.90
1021;DHT22;499;42.648;23.270;2022-09-11T15:33:03;22.40;16.90
1021;DHT22;499;42.648;23.270;2022-09-11T15:35:33;22.30;16.80
1021;DHT22;499;42.648;23.270;2022-09-11T15:38:00;22.10;17.20
1021;DHT22;499;42.648;23.270;2022-09-11T15:40:29;22.10;16.30
1021;DHT22;499;42.648;23.270;2022-09-11T15:42:56;22.00;16.70
1021;DHT22;499;42.648;23.270;2022-09-11T15:45:23;22.00;16.50
1021;DHT22;499;42.648;23.270;2022-09-11T15:47:52;21.80;17.40
1021;DHT22;499;42.648;23.270;2022-09-11T15:50:19;21.70;17.00
1021;DHT22;499;42.648;23.270;2022-09-11T15:52:52;21.70;17.30
1021;DHT22;499;42.648;23.270;2022-09-11T15:55:19;21.70;17.70
1021;DHT22;499;42.648;23.270;2022-09-11T15:57:46;21.60;17.20
1021;DHT22;499;42.648;23.270;2022-09-11T16:00:14;21.60;18.00
1021;DHT22;499;42.648;23.270;2022-09-11T16:02:41;21.40;17.90
1021;DHT22;499;42.648;23.270;2022-09-11T16:05:09;21.30;18.50
1021;DHT22;499;42.648;23.270;2022-09-11T16:07:37;21.10;19.50
1021;DHT22;499;42.648;23.270;2022-09-11T16:10:04;21.00;18.90
1021;DHT22;499;42.648;23.270;2022-09-11T16:12:32;20.90;18.80
1021;DHT22;499;42.648;23.270;2022-09-11T16:14:59;20.70;20.70
1021;DHT22;499;42.648;23.270;2022-09-11T16:17:26;20.60;21.60
1021;DHT22;499;42.648;23.270;2022-09-11T16:19:56;20.60;22.60
1021;DHT22;499;42.648;23.270;2022-09-11T16:22:25;20.40;25.10
1021;DHT22;499;42.648;23.270;2022-09-11T16:24:56;20.20;27.70
1021;DHT22;499;42.648;23.270;2022-09-11T16:27:23;19.90;34.80
1021;DHT22;499;42.648;23.270;2022-09-11T16:29:50;19.70;46.20
1021;DHT22;499;42.648;23.270;2022-09-11T16:32:18;19.50;52.50
1021;DHT22;499;42.648;23.270;2022-09-11T16:34:52;19.40;58.70
1021;DHT22;499;42.648;23.270;2022-09-11T16:37:20;19.10;67.20
1021;DHT22;499;42.648;23.270;2022-09-11T16:39:49;18.90;72.20